createdAt,value
2018-01-08T00:00:30.233Z,9.63
2018-01-08T00:03:01.081Z,10.80
2018-01-08T00:05:30.739Z,10.37
2018-01-08T00:08:00.883Z,10.40
2018-01-08T00:10:29.911Z,10.10
2018-01-08T00:12:58.825Z,12.10
2018-01-08T00:15:28.159Z,11.10
2018-01-08T00:17:59.040Z,9.60
2018-01-08T00:20:28.195Z,10.30
2018-01-08T00:22:58.932Z,9.53
2018-01-08T00:25:27.891Z,10.90
2018-01-08T00:27:57.441Z,12.30
2018-01-08T00:30:27.071Z,10.30
2018-01-08T00:32:55.970Z,10.93
2018-01-08T00:35:24.865Z,10.33
2018-01-08T00:37:53.800Z,10.43
2018-01-08T00:40:22.698Z,11.37
2018-01-08T00:42:51.703Z,11.13
2018-01-08T00:45:21.023Z,10.07
2018-01-08T00:47:49.925Z,11.83
2018-01-08T00:50:18.823Z,10.90
2018-01-08T00:52:47.751Z,10.33
2018-01-08T00:55:16.994Z,9.77
2018-01-08T00:57:45.873Z,12.00
2018-01-08T01:00:14.778Z,10.23
2018-01-08T01:02:43.678Z,12.57
2018-01-08T01:05:12.577Z,11.07
2018-01-08T01:07:41.984Z,10.93
2018-01-08T01:10:10.877Z,9.70
2018-01-08T01:12:39.774Z,11.57
2018-01-08T01:15:09.954Z,12.67
2018-01-08T01:17:38.865Z,11.83
2018-01-08T01:20:07.847Z,10.70
2018-01-08T01:22:36.766Z,12.13
2018-01-08T01:25:06.028Z,10.80
2018-01-08T01:27:34.929Z,11.53
2018-01-08T01:30:04.213Z,12.03
2018-01-08T01:32:33.129Z,11.50
2018-01-08T01:35:02.010Z,11.37
2018-01-08T01:37:30.930Z,11.80
2018-01-08T01:39:59.842Z,12.63
2018-01-08T01:42:28.756Z,10.90
2018-01-08T01:44:57.826Z,10.70
2018-01-08T01:47:26.721Z,11.20
2018-01-08T01:49:55.599Z,10.23
2018-01-08T01:52:24.683Z,10.87
2018-01-08T01:54:54.501Z,11.47
2018-01-08T01:57:23.887Z,12.60
2018-01-08T01:59:52.797Z,11.07
2018-01-08T02:02:21.712Z,11.13
2018-01-08T02:04:50.602Z,13.57
2018-01-08T02:07:19.680Z,11.77
2018-01-08T02:09:48.806Z,10.60
2018-01-08T02:12:18.105Z,12.30
2018-01-08T02:14:47.201Z,11.80
2018-01-08T02:17:17.163Z,10.73
2018-01-08T02:19:46.047Z,11.73
2018-01-08T02:22:15.739Z,12.27
2018-01-08T02:24:44.627Z,12.43
2018-01-08T02:27:14.361Z,10.73
2018-01-08T02:29:43.324Z,11.20
2018-01-08T02:32:13.174Z,12.03
2018-01-08T02:34:42.372Z,11.40
2018-01-08T02:37:13.617Z,13.00
2018-01-08T02:39:42.506Z,9.60
2018-01-08T02:42:11.411Z,12.90
2018-01-08T02:44:40.636Z,10.07
2018-01-08T02:47:09.719Z,13.10
2018-01-08T02:49:38.788Z,12.73
2018-01-08T02:52:08.601Z,11.40
2018-01-08T02:54:37.703Z,11.90
2018-01-08T02:57:06.684Z,10.87
2018-01-08T02:59:36.923Z,11.27
2018-01-08T03:02:06.307Z,10.40
2018-01-08T03:04:35.582Z,11.20
2018-01-08T03:07:04.906Z,11.03
2018-01-08T03:09:33.814Z,10.33
2018-01-08T03:12:03.361Z,10.47
2018-01-08T03:14:33.004Z,9.67
2018-01-08T03:17:02.124Z,9.93
2018-01-08T03:19:31.810Z,10.33
2018-01-08T03:22:00.803Z,9.73
2018-01-08T03:24:30.545Z,9.57
2018-01-08T03:27:00.493Z,11.67
2018-01-08T03:29:29.872Z,10.60
2018-01-08T03:31:58.769Z,9.50
2018-01-08T03:34:27.654Z,10.53
2018-01-08T03:36:56.781Z,10.27
2018-01-08T03:39:26.561Z,9.40
2018-01-08T03:41:55.455Z,9.37
2018-01-08T03:44:24.363Z,9.40
2018-01-08T03:46:53.245Z,10.47
2018-01-08T03:49:23.047Z,9.03
2018-01-08T03:51:52.185Z,10.70
2018-01-08T03:54:21.839Z,8.57
2018-01-08T03:56:50.814Z,9.57
2018-01-08T03:59:20.043Z,9.73
2018-01-08T04:01:49.350Z,10.47
2018-01-08T04:04:18.279Z,8.20
2018-01-08T04:06:47.563Z,9.47
2018-01-08T04:09:16.474Z,8.60
2018-01-08T04:11:45.351Z,10.20
2018-01-08T04:14:14.661Z,9.37
2018-01-08T04:16:43.553Z,9.07
2018-01-08T04:19:12.450Z,8.77
2018-01-08T04:21:41.540Z,9.40
2018-01-08T04:24:10.438Z,11.37
2018-01-08T04:26:39.319Z,7.20
2018-01-08T04:29:08.230Z,9.73
2018-01-08T04:31:37.110Z,9.30
2018-01-08T04:34:06.082Z,9.30
2018-01-08T04:36:35.028Z,8.90
2018-01-08T04:39:04.174Z,9.13
2018-01-08T04:41:33.638Z,9.10
2018-01-08T04:44:02.834Z,8.50
2018-01-08T04:46:31.745Z,9.70
2018-01-08T04:49:01.217Z,9.30
2018-01-08T04:51:30.149Z,8.53
2018-01-08T04:53:59.051Z,8.50
2018-01-08T04:56:28.893Z,8.70
2018-01-08T04:58:57.977Z,9.13
2018-01-08T05:01:26.867Z,8.00
2018-01-08T05:03:56.236Z,8.40
2018-01-08T05:06:25.271Z,10.00
2018-01-08T05:08:54.150Z,8.37
2018-01-08T05:11:23.035Z,7.90
2018-01-08T05:13:51.956Z,8.83
2018-01-08T05:16:20.994Z,8.20
2018-01-08T05:18:49.870Z,8.63
2018-01-08T05:21:18.793Z,9.27
2018-01-08T05:23:47.679Z,9.67
2018-01-08T05:26:16.591Z,7.60
2018-01-08T05:28:45.650Z,7.90
2018-01-08T05:31:14.538Z,7.00
2018-01-08T05:33:43.436Z,8.53
2018-01-08T05:36:12.352Z,8.37
2018-01-08T05:38:41.226Z,8.03
2018-01-08T05:41:10.152Z,8.30
2018-01-08T05:43:39.592Z,8.13
2018-01-08T05:46:08.502Z,7.57
2018-01-08T05:48:38.248Z,9.30
2018-01-08T05:51:07.256Z,9.67
2018-01-08T05:53:36.405Z,8.43
2018-01-08T05:56:05.290Z,8.73
2018-01-08T05:58:35.024Z,9.10
2018-01-08T06:01:03.922Z,8.30
2018-01-08T06:03:32.807Z,9.10
2018-01-08T06:06:02.032Z,8.53
2018-01-08T06:08:30.942Z,7.77
2018-01-08T06:10:59.827Z,7.20
2018-01-08T06:13:28.769Z,7.70
2018-01-08T06:15:57.670Z,8.63
2018-01-08T06:18:26.726Z,8.63
2018-01-08T06:20:55.750Z,6.73
2018-01-08T06:23:24.662Z,8.10
2018-01-08T06:25:53.552Z,8.47
2018-01-08T06:28:22.880Z,7.40
2018-01-08T06:30:51.959Z,7.17
2018-01-08T06:33:20.835Z,7.37
2018-01-08T06:35:49.753Z,7.67
2018-01-08T06:38:18.657Z,7.70
2018-01-08T06:40:47.567Z,9.07
2018-01-08T06:43:17.012Z,9.03
2018-01-08T06:45:45.888Z,7.97
2018-01-08T06:48:14.773Z,8.03
2018-01-08T06:50:43.711Z,7.80
2018-01-08T06:53:12.715Z,7.23
2018-01-08T06:55:41.614Z,8.73
2018-01-08T06:58:10.543Z,7.43
2018-01-08T07:00:40.288Z,8.57
2018-01-08T07:03:09.177Z,9.00
2018-01-08T07:05:38.421Z,8.33
2018-01-08T07:08:07.697Z,8.23
2018-01-08T07:10:36.593Z,9.30
2018-01-08T07:13:05.711Z,9.93
2018-01-08T07:15:34.602Z,8.60
2018-01-08T07:18:03.488Z,7.20
2018-01-08T07:20:32.407Z,7.80
2018-01-08T07:23:01.287Z,7.57
2018-01-08T07:25:30.194Z,8.23
2018-01-08T07:27:59.122Z,8.37
2018-01-08T07:30:28.024Z,8.07
2018-01-08T07:32:57.071Z,8.10
2018-01-08T07:35:26.003Z,7.20
2018-01-08T07:37:54.996Z,9.20
2018-01-08T07:40:23.902Z,7.63
2018-01-08T07:42:53.226Z,9.17
2018-01-08T07:45:22.128Z,7.37
2018-01-08T07:47:51.819Z,7.90
2018-01-08T07:50:20.922Z,8.33
2018-01-08T07:52:49.807Z,7.43
2018-01-08T07:55:18.692Z,8.57
2018-01-08T07:57:47.801Z,7.00
2018-01-08T08:00:16.710Z,8.93
2018-01-08T08:02:46.468Z,8.13
2018-01-08T08:05:15.378Z,7.73
2018-01-08T08:07:44.270Z,10.07
2018-01-08T08:10:13.396Z,6.93
2018-01-08T08:12:42.495Z,7.77
2018-01-08T08:15:11.376Z,6.97
2018-01-08T08:17:40.254Z,8.13
2018-01-08T08:20:09.183Z,8.83
2018-01-08T08:22:38.240Z,7.27
2018-01-08T08:25:07.158Z,8.00
2018-01-08T08:27:36.072Z,8.37
2018-01-08T08:30:04.955Z,8.83
2018-01-08T08:32:33.858Z,8.13
2018-01-08T08:35:02.902Z,7.57
2018-01-08T08:37:31.796Z,8.80
2018-01-08T08:40:00.683Z,7.23
2018-01-08T08:42:29.976Z,7.00
2018-01-08T08:44:59.439Z,7.17
2018-01-08T08:47:28.374Z,6.53
2018-01-08T08:49:57.282Z,7.43
2018-01-08T08:52:26.167Z,7.47
2018-01-08T08:54:55.365Z,6.63
2018-01-08T08:57:24.275Z,10.23
2018-01-08T08:59:53.169Z,7.73
2018-01-08T09:02:22.074Z,8.40
2018-01-08T09:04:51.006Z,8.30
2018-01-08T09:07:19.900Z,7.93
2018-01-08T09:09:48.801Z,7.83
2018-01-08T09:12:18.489Z,7.90
2018-01-08T09:14:47.394Z,8.03
2018-01-08T09:17:16.281Z,8.40
2018-01-08T09:19:45.187Z,7.27
2018-01-08T09:22:14.081Z,7.13
2018-01-08T09:24:43.005Z,8.30
2018-01-08T09:27:11.923Z,6.57
2018-01-08T09:29:40.803Z,6.80
2018-01-08T09:32:09.689Z,7.63
2018-01-08T09:34:38.611Z,7.70
2018-01-08T09:37:07.550Z,8.27
2018-01-08T09:39:36.483Z,8.67
2018-01-08T09:42:06.534Z,7.10
2018-01-08T09:44:35.433Z,8.10
2018-01-08T09:47:04.347Z,8.70
2018-01-08T09:49:33.590Z,7.53
2018-01-08T09:52:02.611Z,8.20
2018-01-08T09:54:31.484Z,6.47
2018-01-08T09:57:00.963Z,6.80
2018-01-08T09:59:30.575Z,7.30
2018-01-08T10:01:59.829Z,6.60
2018-01-08T10:04:35.087Z,7.50
2018-01-08T10:07:09.783Z,7.43
2018-01-08T10:09:44.509Z,7.47
2018-01-08T10:12:20.245Z,7.10
2018-01-08T10:14:55.162Z,8.40
2018-01-08T10:17:29.793Z,6.80
2018-01-08T10:19:58.956Z,6.87
2018-01-08T10:22:28.037Z,8.13
2018-01-08T10:24:56.930Z,6.80
2018-01-08T10:27:25.865Z,7.20
2018-01-08T10:29:54.773Z,7.80
2018-01-08T10:32:23.654Z,7.03
2018-01-08T10:34:52.733Z,8.37
2018-01-08T10:37:21.629Z,8.03
2018-01-08T10:39:50.521Z,8.77
2018-01-08T10:42:25.282Z,6.80
2018-01-08T10:45:00.152Z,6.60
2018-01-08T10:47:34.867Z,7.93
2018-01-08T10:50:09.582Z,6.93
2018-01-08T10:52:38.659Z,7.20
2018-01-08T10:55:08.226Z,8.37
2018-01-08T10:57:37.106Z,7.83
2018-01-08T11:00:06.215Z,6.83
2018-01-08T11:02:40.899Z,8.50
2018-01-08T11:05:10.126Z,7.50
2018-01-08T11:07:39.024Z,7.07
2018-01-08T11:10:08.887Z,7.53
2018-01-08T11:12:37.876Z,7.57
2018-01-08T11:15:06.906Z,8.23
2018-01-08T11:17:35.821Z,8.10
2018-01-08T11:20:04.733Z,7.27
2018-01-08T11:22:33.629Z,7.40
2018-01-08T11:25:02.532Z,6.67
2018-01-08T11:27:31.892Z,6.60
2018-01-08T11:30:00.959Z,7.63
2018-01-08T11:32:30.602Z,7.43
2018-01-08T11:34:59.666Z,7.80
2018-01-08T11:37:28.540Z,7.90
2018-01-08T11:39:57.429Z,7.87
2018-01-08T11:42:26.406Z,7.93
2018-01-08T11:44:55.362Z,7.33
2018-01-08T11:47:24.289Z,7.20
2018-01-08T11:49:53.542Z,8.37
2018-01-08T11:52:22.412Z,7.00
2018-01-08T11:54:51.511Z,6.97
2018-01-08T11:57:21.038Z,6.40
2018-01-08T11:59:49.910Z,7.50
2018-01-08T12:02:18.783Z,7.20
2018-01-08T12:04:47.698Z,6.00
2018-01-08T12:07:16.778Z,7.10
2018-01-08T12:09:45.655Z,7.27
2018-01-08T12:12:15.496Z,6.60
2018-01-08T12:14:44.371Z,5.80
2018-01-08T12:17:13.605Z,6.20
2018-01-08T12:19:42.512Z,6.17
2018-01-08T12:22:11.415Z,5.70
2018-01-08T12:24:40.330Z,5.73
2018-01-08T12:27:09.258Z,6.33
2018-01-08T12:29:38.149Z,6.57
2018-01-08T12:32:07.053Z,5.43
2018-01-08T12:34:36.294Z,6.93
2018-01-08T12:37:05.203Z,7.00
2018-01-08T12:39:34.079Z,6.50
2018-01-08T12:42:03.008Z,5.77
2018-01-08T12:44:32.178Z,6.27
2018-01-08T12:47:01.059Z,6.10
2018-01-08T12:49:30.450Z,5.73
2018-01-08T12:51:59.358Z,5.97
2018-01-08T12:54:28.250Z,6.57
2018-01-08T12:56:57.479Z,5.53
2018-01-08T12:59:27.506Z,5.37
2018-01-08T13:01:56.399Z,4.97
2018-01-08T13:04:25.326Z,5.90
2018-01-08T13:06:54.222Z,5.07
2018-01-08T13:09:23.814Z,6.90
2018-01-08T13:11:52.873Z,6.20
2018-01-08T13:14:21.743Z,5.77
2018-01-08T13:16:51.150Z,6.23
2018-01-08T13:19:20.218Z,6.47
2018-01-08T13:21:49.297Z,6.77
2018-01-08T13:24:18.197Z,6.53
2018-01-08T13:26:47.502Z,7.67
2018-01-08T13:29:16.403Z,6.13
2018-01-08T13:31:45.313Z,6.43
2018-01-08T13:34:14.458Z,6.33
2018-01-08T13:36:43.336Z,6.20
2018-01-08T13:39:12.226Z,6.43
2018-01-08T13:41:41.630Z,6.20
2018-01-08T13:44:10.526Z,6.80
2018-01-08T13:46:39.450Z,6.23
2018-01-08T13:49:08.339Z,7.40
2018-01-08T13:51:37.211Z,7.30
2018-01-08T13:54:06.088Z,7.03
2018-01-08T13:56:35.213Z,6.80
2018-01-08T13:59:04.505Z,5.70
2018-01-08T14:01:34.488Z,5.97
2018-01-08T14:04:04.524Z,7.07
2018-01-08T14:06:33.434Z,7.87
2018-01-08T14:09:02.312Z,6.63
2018-01-08T14:11:31.634Z,6.53
2018-01-08T14:14:00.516Z,6.60
2018-01-08T14:16:30.167Z,6.80
2018-01-08T14:18:59.172Z,7.00
2018-01-08T14:21:28.211Z,7.20
2018-01-08T14:23:57.118Z,6.63
2018-01-08T14:26:26.030Z,6.07
2018-01-08T14:28:55.495Z,6.37
2018-01-08T14:31:24.407Z,6.30
2018-01-08T14:33:53.613Z,7.13
2018-01-08T14:36:22.522Z,6.80
2018-01-08T14:38:51.418Z,6.53
2018-01-08T14:41:20.707Z,7.50
2018-01-08T14:43:49.603Z,6.93
2018-01-08T14:46:18.498Z,7.40
2018-01-08T14:48:47.971Z,6.97
2018-01-08T14:51:16.898Z,6.93
2018-01-08T14:53:45.837Z,6.73
2018-01-08T14:56:15.132Z,7.60
2018-01-08T14:58:44.053Z,7.03
2018-01-08T15:01:13.229Z,6.47
2018-01-08T15:03:42.359Z,6.80
2018-01-08T15:06:11.259Z,7.10
2018-01-08T15:08:40.927Z,7.00
2018-01-08T15:11:09.859Z,6.60
2018-01-08T15:13:39.967Z,8.43
2018-01-08T15:16:08.858Z,6.60
2018-01-08T15:18:37.984Z,5.10
2018-01-08T15:21:06.866Z,6.80
2018-01-08T15:23:36.395Z,6.80
2018-01-08T15:26:06.134Z,5.87
2018-01-08T15:28:36.048Z,6.80
2018-01-08T15:31:04.950Z,7.23
2018-01-08T15:33:33.875Z,7.37
2018-01-08T15:36:02.827Z,6.20
2018-01-08T15:38:32.257Z,5.33
2018-01-08T15:41:01.186Z,6.10
2018-01-08T15:43:30.063Z,6.53
2018-01-08T15:45:58.947Z,5.80
2018-01-08T15:48:28.240Z,6.70
2018-01-08T15:50:57.329Z,6.57
2018-01-08T15:53:26.236Z,6.50
2018-01-08T15:55:55.613Z,5.03
2018-01-08T15:58:24.510Z,5.50
2018-01-08T16:00:53.546Z,6.73
2018-01-08T16:03:22.582Z,7.23
2018-01-08T16:05:52.147Z,5.23
2018-01-08T16:08:21.056Z,7.23
2018-01-08T16:10:49.969Z,5.80
2018-01-08T16:13:18.981Z,6.23
2018-01-08T16:15:48.450Z,5.60
2018-01-08T16:18:17.356Z,5.93
2018-01-08T16:20:46.301Z,5.80
2018-01-08T16:23:15.193Z,6.97
2018-01-08T16:25:45.313Z,5.97
2018-01-08T16:28:14.196Z,5.13
2018-01-08T16:30:43.945Z,6.67
2018-01-08T16:33:12.861Z,6.43
2018-01-08T16:35:41.749Z,6.00
2018-01-08T16:38:10.658Z,6.60
2018-01-08T16:40:39.819Z,6.00
2018-01-08T16:43:08.700Z,6.97
2018-01-08T16:45:37.602Z,6.13
2018-01-08T16:48:08.087Z,7.33
2018-01-08T16:50:36.984Z,6.23
2018-01-08T16:53:07.089Z,5.27
2018-01-08T16:55:36.130Z,6.37
2018-01-08T16:58:05.004Z,6.00
2018-01-08T17:00:33.880Z,6.97
2018-01-08T17:03:02.810Z,5.93
2018-01-08T17:05:32.050Z,5.80
2018-01-08T17:08:01.369Z,6.27
2018-01-08T17:10:30.590Z,5.77
2018-01-08T17:12:59.853Z,7.20
2018-01-08T17:15:28.748Z,5.83
2018-01-08T17:17:59.687Z,7.40
2018-01-08T17:20:29.085Z,6.20
2018-01-08T17:22:58.135Z,6.60
2018-01-08T17:25:28.545Z,6.40
2018-01-08T17:27:57.683Z,6.03
2018-01-08T17:30:27.133Z,6.70
2018-01-08T17:32:57.274Z,7.20
2018-01-08T17:35:26.330Z,6.30
2018-01-08T17:37:56.270Z,6.87
2018-01-08T17:40:25.262Z,6.03
2018-01-08T17:42:54.438Z,7.17
2018-01-08T17:45:23.562Z,6.00
2018-01-08T17:47:52.762Z,7.10
2018-01-08T17:50:21.673Z,7.77
2018-01-08T17:52:51.805Z,6.90
2018-01-08T17:55:20.891Z,5.93
2018-01-08T17:57:50.028Z,5.77
2018-01-08T18:00:19.200Z,6.20
2018-01-08T18:02:48.169Z,6.03
2018-01-08T18:05:17.707Z,5.60
2018-01-08T18:07:47.493Z,7.40
2018-01-08T18:10:16.619Z,5.63
2018-01-08T18:12:45.573Z,6.27
2018-01-08T18:15:14.494Z,7.77
2018-01-08T18:17:43.438Z,7.00
2018-01-08T18:20:12.862Z,7.80
2018-01-08T18:22:41.794Z,6.23
2018-01-08T18:25:10.942Z,7.77
2018-01-08T18:27:39.842Z,6.43
2018-01-08T18:30:09.877Z,6.07
2018-01-08T18:32:38.883Z,6.97
2018-01-08T18:35:07.813Z,9.07
2018-01-08T18:37:36.751Z,6.10
2018-01-08T18:40:05.911Z,6.07
2018-01-08T18:42:35.314Z,6.30
2018-01-08T18:45:04.650Z,6.17
2018-01-08T18:47:33.692Z,7.30
2018-01-08T18:50:02.616Z,7.87
2018-01-08T18:52:31.630Z,6.87
2018-01-08T18:55:00.769Z,7.70
2018-01-08T18:57:30.071Z,6.90
2018-01-08T18:59:59.863Z,5.90
2018-01-08T19:02:28.975Z,6.60
2018-01-08T19:04:57.863Z,6.07
2018-01-08T19:07:27.736Z,6.87
2018-01-08T19:09:57.794Z,6.27
2018-01-08T19:12:26.679Z,6.43
2018-01-08T19:14:55.708Z,7.00
2018-01-08T19:17:24.608Z,6.97
2018-01-08T19:19:54.254Z,7.40
2018-01-08T19:22:23.629Z,6.77
2018-01-08T19:24:53.057Z,6.03
2018-01-08T19:27:21.940Z,6.60
2018-01-08T19:29:50.836Z,6.40
2018-01-08T19:32:21.249Z,7.00
2018-01-08T19:34:50.227Z,5.97
2018-01-08T19:37:19.261Z,6.40
2018-01-08T19:39:48.205Z,6.90
2018-01-08T19:42:17.121Z,7.30
2018-01-08T19:44:46.221Z,6.87
2018-01-08T19:47:15.279Z,6.80
2018-01-08T19:49:44.160Z,6.47
2018-01-08T19:52:13.775Z,6.40
2018-01-08T19:54:42.742Z,6.60
2018-01-08T19:57:11.713Z,8.17
2018-01-08T19:59:41.482Z,6.90
2018-01-08T20:02:11.315Z,6.20
2018-01-08T20:04:40.245Z,6.20
2018-01-08T20:07:09.253Z,7.37
2018-01-08T20:09:38.604Z,6.60
2018-01-08T20:12:08.033Z,6.03
2018-01-08T20:14:36.991Z,6.70
2018-01-08T20:17:06.133Z,6.43
2018-01-08T20:19:35.095Z,6.43
2018-01-08T20:22:03.997Z,7.50
2018-01-08T20:24:33.198Z,6.73
2018-01-08T20:27:02.089Z,8.07
2018-01-08T20:29:31.048Z,6.00
2018-01-08T20:32:00.753Z,6.30
2018-01-08T20:34:30.080Z,6.70
2018-01-08T20:36:59.108Z,6.20
2018-01-08T20:39:28.073Z,6.87
2018-01-08T20:41:56.973Z,6.17
2018-01-08T20:44:25.877Z,6.57
2018-01-08T20:46:54.824Z,7.03
2018-01-08T20:49:24.694Z,5.37
2018-01-08T20:51:53.598Z,6.40
2018-01-08T20:54:23.819Z,6.43
2018-01-08T20:56:52.743Z,6.70
2018-01-08T20:59:21.691Z,6.17
2018-01-08T21:01:53.050Z,6.60
2018-01-08T21:04:21.987Z,8.53
2018-01-08T21:06:51.087Z,5.37
2018-01-08T21:09:20.171Z,6.90
2018-01-08T21:11:49.072Z,6.10
2018-01-08T21:14:19.027Z,7.10
2018-01-08T21:16:47.959Z,6.13
2018-01-08T21:19:16.864Z,5.77
2018-01-08T21:21:45.747Z,6.13
2018-01-08T21:24:15.220Z,6.77
2018-01-08T21:26:44.406Z,6.77
2018-01-08T21:29:13.313Z,6.13
2018-01-08T21:31:42.266Z,5.53
2018-01-08T21:34:11.418Z,5.30
2018-01-08T21:36:40.853Z,5.90
2018-01-08T21:39:10.900Z,6.00
2018-01-08T21:41:39.782Z,5.70
2018-01-08T21:44:08.679Z,5.77
2018-01-08T21:46:37.860Z,6.13
2018-01-08T21:49:07.008Z,5.67
2018-01-08T21:51:36.286Z,5.63
2018-01-08T21:54:05.715Z,5.90
2018-01-08T21:56:34.658Z,5.53
2018-01-08T21:59:03.586Z,5.23
2018-01-08T22:01:32.599Z,5.97
2018-01-08T22:04:01.750Z,6.10
2018-01-08T22:06:31.632Z,4.77
2018-01-08T22:09:01.875Z,5.87
2018-01-08T22:11:31.718Z,6.00
2018-01-08T22:14:00.711Z,5.50
2018-01-08T22:16:30.617Z,6.30
2018-01-08T22:18:59.710Z,5.67
2018-01-08T22:21:28.619Z,5.40
2018-01-08T22:23:57.610Z,4.87
2018-01-08T22:26:27.448Z,5.67
2018-01-08T22:28:56.467Z,7.20
2018-01-08T22:31:25.798Z,6.03
2018-01-08T22:33:54.728Z,5.77
2018-01-08T22:36:23.704Z,6.00
2018-01-08T22:38:54.051Z,5.17
2018-01-08T22:41:23.023Z,5.63
2018-01-08T22:43:51.931Z,5.53
2018-01-08T22:46:21.116Z,6.10
2018-01-08T22:48:50.044Z,5.73
2018-01-08T22:51:19.140Z,5.37
2018-01-08T22:53:48.411Z,5.00
2018-01-08T22:56:17.309Z,5.73
2018-01-08T22:58:46.213Z,5.33
2018-01-08T23:01:15.133Z,5.43
2018-01-08T23:03:44.015Z,5.53
2018-01-08T23:06:14.409Z,5.10
2018-01-08T23:08:43.326Z,5.17
2018-01-08T23:11:12.228Z,5.23
2018-01-08T23:13:41.122Z,5.30
2018-01-08T23:16:10.054Z,5.83
2018-01-08T23:18:39.646Z,6.43
2018-01-08T23:21:08.523Z,5.20
2018-01-08T23:23:37.547Z,7.13
2018-01-08T23:26:06.437Z,5.40
2018-01-08T23:28:35.905Z,5.67
2018-01-08T23:31:05.179Z,5.00
2018-01-08T23:33:34.060Z,4.93
2018-01-08T23:36:02.991Z,5.57
2018-01-08T23:38:32.221Z,5.97
2018-01-08T23:41:01.421Z,5.00
2018-01-08T23:43:30.500Z,5.60
2018-01-08T23:45:59.615Z,5.20
2018-01-08T23:48:28.529Z,5.80
2018-01-08T23:50:57.432Z,5.97
2018-01-08T23:53:26.462Z,5.83
2018-01-08T23:55:55.554Z,5.50
2018-01-08T23:58:24.440Z,6.47
